createdAt,value
2019-06-26T00:01:40.684Z,27.10
2019-06-26T00:04:09.076Z,27.00
2019-06-26T00:06:37.512Z,27.00
2019-06-26T00:09:07.539Z,27.00
2019-06-26T00:11:35.977Z,26.90
2019-06-26T00:14:04.342Z,26.90
2019-06-26T00:16:32.620Z,26.90
2019-06-26T00:19:00.462Z,26.90
2019-06-26T00:21:28.316Z,26.90
2019-06-26T00:23:56.807Z,26.90
2019-06-26T00:26:24.725Z,26.80
2019-06-26T00:28:53.041Z,26.80
2019-06-26T00:31:20.979Z,26.80
2019-06-26T00:33:48.846Z,26.80
2019-06-26T00:36:17.462Z,26.80
2019-06-26T00:38:45.576Z,26.70
2019-06-26T00:41:14.009Z,26.70
2019-06-26T00:43:42.925Z,26.80
2019-06-26T00:46:11.400Z,26.80
2019-06-26T00:48:39.608Z,26.80
2019-06-26T00:51:07.570Z,26.70
2019-06-26T00:53:35.392Z,26.70
2019-06-26T00:56:03.760Z,26.70
2019-06-26T00:58:31.929Z,26.70
2019-06-26T01:01:00.177Z,26.70
2019-06-26T01:03:28.126Z,26.70
2019-06-26T01:05:56.790Z,26.70
2019-06-26T01:08:24.707Z,26.70
2019-06-26T01:10:53.003Z,26.60
2019-06-26T01:13:20.957Z,26.70
2019-06-26T01:15:48.940Z,26.60
2019-06-26T01:18:16.881Z,26.60
2019-06-26T01:20:44.721Z,26.60
2019-06-26T01:23:12.900Z,26.60
2019-06-26T01:25:41.355Z,26.50
2019-06-26T01:28:09.452Z,26.60
2019-06-26T01:30:37.823Z,26.50
2019-06-26T01:33:06.245Z,26.50
2019-06-26T01:35:34.527Z,26.50
2019-06-26T01:38:02.432Z,26.50
2019-06-26T01:40:30.723Z,26.50
2019-06-26T01:42:59.259Z,26.50
2019-06-26T01:45:27.688Z,26.50
2019-06-26T01:47:55.997Z,26.40
2019-06-26T01:50:24.308Z,26.40
2019-06-26T01:52:52.283Z,26.40
2019-06-26T01:55:20.342Z,26.30
2019-06-26T01:57:48.638Z,26.40
2019-06-26T02:00:16.771Z,26.30
2019-06-26T02:02:44.642Z,26.40
2019-06-26T02:05:13.030Z,26.30
2019-06-26T02:07:40.918Z,26.30
2019-06-26T02:10:09.324Z,26.30
2019-06-26T02:12:37.437Z,26.30
2019-06-26T02:15:38.862Z,26.30
2019-06-26T02:18:07.934Z,26.30
2019-06-26T02:20:36.241Z,26.30
2019-06-26T02:23:04.266Z,26.20
2019-06-26T02:25:32.560Z,26.20
2019-06-26T02:28:00.432Z,26.20
2019-06-26T02:30:28.913Z,26.20
2019-06-26T02:32:56.974Z,26.20
2019-06-26T02:35:24.867Z,26.20
2019-06-26T02:37:53.170Z,26.10
2019-06-26T02:40:21.261Z,26.20
2019-06-26T02:42:49.144Z,26.10
2019-06-26T02:45:17.636Z,26.10
2019-06-26T02:47:45.507Z,26.10
2019-06-26T02:50:13.559Z,26.00
2019-06-26T02:52:41.736Z,26.00
2019-06-26T02:55:11.226Z,26.00
2019-06-26T02:57:39.170Z,26.00
2019-06-26T03:00:07.295Z,26.00
2019-06-26T03:02:35.186Z,26.00
2019-06-26T03:05:03.758Z,25.90
2019-06-26T03:07:31.513Z,26.00
2019-06-26T03:09:59.547Z,25.90
2019-06-26T03:12:27.454Z,25.90
2019-06-26T03:15:08.287Z,25.90
2019-06-26T03:17:25.112Z,25.90
2019-06-26T03:19:53.037Z,25.90
2019-06-26T03:22:21.200Z,25.90
2019-06-26T03:24:49.169Z,25.80
2019-06-26T03:27:17.062Z,25.80
2019-06-26T03:29:45.051Z,25.80
2019-06-26T03:32:13.007Z,25.80
2019-06-26T03:34:40.968Z,25.80
2019-06-26T03:37:08.957Z,25.80
2019-06-26T03:39:36.875Z,25.80
2019-06-26T03:42:04.772Z,25.80
2019-06-26T03:44:32.685Z,25.80
2019-06-26T03:47:00.583Z,25.70
2019-06-26T03:49:28.626Z,25.70
2019-06-26T03:51:56.569Z,25.70
2019-06-26T03:54:24.419Z,25.70
2019-06-26T03:56:52.424Z,25.70
2019-06-26T03:59:20.249Z,25.70
2019-06-26T04:01:48.325Z,25.70
2019-06-26T04:04:16.444Z,25.70
2019-06-26T04:06:44.513Z,25.70
2019-06-26T04:09:12.323Z,25.70
2019-06-26T04:11:40.532Z,25.60
2019-06-26T04:14:20.901Z,25.70
2019-06-26T04:16:49.002Z,25.60
2019-06-26T04:19:17.043Z,25.60
2019-06-26T04:21:44.903Z,25.60
2019-06-26T04:24:12.795Z,25.60
2019-06-26T04:26:40.769Z,25.60
2019-06-26T04:29:08.705Z,25.60
2019-06-26T04:31:36.637Z,25.60
2019-06-26T04:34:04.573Z,25.60
2019-06-26T04:36:32.521Z,25.60
2019-06-26T04:39:00.528Z,25.50
2019-06-26T04:41:28.652Z,25.50
2019-06-26T04:43:57.106Z,25.50
2019-06-26T04:46:25.124Z,25.50
2019-06-26T04:48:53.031Z,25.50
2019-06-26T04:51:20.931Z,25.50
2019-06-26T04:53:49.146Z,25.50
2019-06-26T04:56:17.243Z,25.50
2019-06-26T04:58:45.101Z,25.50
2019-06-26T05:01:13.084Z,25.50
2019-06-26T05:03:40.986Z,25.50
2019-06-26T05:06:09.371Z,25.50
2019-06-26T05:08:37.255Z,25.50
2019-06-26T05:11:07.362Z,25.50
2019-06-26T05:13:35.386Z,25.50
2019-06-26T05:16:14.198Z,25.50
2019-06-26T05:18:33.366Z,25.50
2019-06-26T05:21:01.392Z,25.50
2019-06-26T05:23:29.417Z,25.60
2019-06-26T05:25:57.246Z,25.50
2019-06-26T05:28:25.154Z,25.60
2019-06-26T05:30:53.280Z,25.60
2019-06-26T05:33:21.239Z,25.50
2019-06-26T05:35:49.213Z,25.50
2019-06-26T05:38:17.185Z,25.50
2019-06-26T05:40:45.049Z,25.60
2019-06-26T05:43:13.057Z,25.60
2019-06-26T05:45:40.971Z,25.60
2019-06-26T05:48:08.900Z,25.60
2019-06-26T05:50:36.814Z,25.60
2019-06-26T05:53:05.103Z,25.60
2019-06-26T05:55:33.036Z,25.60
2019-06-26T05:58:00.884Z,25.60
2019-06-26T06:00:29.028Z,25.60
2019-06-26T06:02:57.054Z,25.60
2019-06-26T06:05:25.032Z,25.70
2019-06-26T06:07:52.849Z,25.70
2019-06-26T06:10:20.984Z,25.70
2019-06-26T06:12:48.930Z,25.70
2019-06-26T06:15:18.348Z,25.70
2019-06-26T06:17:46.317Z,25.80
2019-06-26T06:20:16.306Z,25.80
2019-06-26T06:22:44.389Z,25.80
2019-06-26T06:25:13.209Z,25.90
2019-06-26T06:27:41.109Z,25.90
2019-06-26T06:30:09.533Z,25.90
2019-06-26T06:32:37.497Z,25.90
2019-06-26T06:35:07.393Z,25.90
2019-06-26T06:37:35.294Z,25.90
2019-06-26T06:40:04.064Z,25.90
2019-06-26T06:42:31.899Z,26.00
2019-06-26T06:45:00.009Z,26.00
2019-06-26T06:47:27.958Z,26.00
2019-06-26T06:49:55.834Z,26.00
2019-06-26T06:52:23.731Z,26.00
2019-06-26T06:54:51.823Z,26.00
2019-06-26T06:57:19.648Z,26.10
2019-06-26T06:59:47.798Z,26.10
2019-06-26T07:02:15.823Z,26.10
2019-06-26T07:04:43.727Z,26.10
2019-06-26T07:07:13.187Z,26.20
2019-06-26T07:09:41.107Z,26.20
2019-06-26T07:12:08.944Z,26.20
2019-06-26T07:14:58.217Z,26.20
2019-06-26T07:17:26.075Z,26.30
2019-06-26T07:19:54.151Z,26.30
2019-06-26T07:22:22.184Z,26.40
2019-06-26T07:24:50.006Z,26.40
2019-06-26T07:27:17.917Z,26.50
2019-06-26T07:29:45.822Z,26.50
2019-06-26T07:32:13.745Z,26.60
2019-06-26T07:34:41.582Z,26.60
2019-06-26T07:37:09.563Z,26.60
2019-06-26T07:39:37.603Z,26.60
2019-06-26T07:42:05.408Z,26.70
2019-06-26T07:44:33.412Z,26.70
2019-06-26T07:47:01.312Z,26.70
2019-06-26T07:49:29.366Z,26.80
2019-06-26T07:51:57.407Z,26.90
2019-06-26T07:54:25.287Z,26.90
2019-06-26T07:56:53.171Z,26.90
2019-06-26T07:59:21.075Z,27.00
2019-06-26T08:01:49.065Z,27.10
2019-06-26T08:04:17.059Z,27.10
2019-06-26T08:06:45.067Z,27.10
2019-06-26T08:09:12.937Z,27.20
2019-06-26T08:11:40.843Z,27.30
2019-06-26T08:14:21.757Z,27.30
2019-06-26T08:16:49.848Z,27.30
2019-06-26T08:19:17.813Z,27.30
2019-06-26T08:21:46.786Z,27.40
2019-06-26T08:24:14.847Z,27.40
2019-06-26T08:26:42.992Z,27.40
2019-06-26T08:29:10.836Z,27.40
2019-06-26T08:31:38.829Z,27.40
2019-06-26T08:34:07.205Z,27.40
2019-06-26T08:36:35.215Z,27.40
2019-06-26T08:39:04.100Z,27.40
2019-06-26T08:41:32.015Z,27.50
2019-06-26T08:44:00.466Z,27.60
2019-06-26T08:46:28.374Z,27.60
2019-06-26T08:48:56.483Z,27.60
2019-06-26T08:51:24.598Z,27.70
2019-06-26T08:54:11.074Z,27.70
2019-06-26T08:56:39.006Z,27.80
2019-06-26T08:59:06.893Z,27.80
2019-06-26T09:01:34.920Z,27.80
2019-06-26T09:04:02.912Z,27.90
2019-06-26T09:06:31.012Z,27.90
2019-06-26T09:08:59.796Z,28.00
2019-06-26T09:11:27.651Z,28.10
2019-06-26T09:14:03.080Z,28.10
2019-06-26T09:16:31.025Z,28.20
2019-06-26T09:18:59.779Z,28.20
2019-06-26T09:21:30.949Z,28.20
2019-06-26T09:23:58.511Z,28.20
2019-06-26T09:26:28.570Z,28.30
2019-06-26T09:28:57.970Z,28.30
2019-06-26T09:31:25.944Z,28.40
2019-06-26T09:33:53.962Z,28.50
2019-06-26T09:36:22.091Z,28.60
2019-06-26T09:38:50.048Z,28.60
2019-06-26T09:41:17.984Z,28.60
2019-06-26T09:43:45.962Z,28.70
2019-06-26T09:46:13.835Z,28.70
2019-06-26T09:48:52.302Z,28.80
2019-06-26T09:51:11.485Z,28.90
2019-06-26T09:53:47.143Z,29.00
2019-06-26T09:56:09.804Z,29.00
2019-06-26T09:58:37.690Z,29.00
2019-06-26T10:01:05.726Z,29.10
2019-06-26T10:03:33.711Z,29.10
2019-06-26T10:06:01.676Z,29.10
2019-06-26T10:08:29.775Z,29.20
2019-06-26T10:11:05.563Z,29.30
2019-06-26T10:13:33.729Z,29.30
2019-06-26T10:16:01.757Z,29.20
2019-06-26T10:18:29.868Z,29.20
2019-06-26T10:20:57.863Z,29.30
2019-06-26T10:23:25.740Z,29.30
2019-06-26T10:25:53.605Z,29.40
2019-06-26T10:28:21.582Z,29.40
2019-06-26T10:30:49.678Z,29.50
2019-06-26T10:33:17.548Z,29.50
2019-06-26T10:35:45.449Z,29.60
2019-06-26T10:38:13.299Z,29.70
2019-06-26T10:40:41.202Z,29.70
2019-06-26T10:43:09.279Z,29.70
2019-06-26T10:45:37.265Z,29.80
2019-06-26T10:48:05.484Z,29.80
2019-06-26T10:50:33.495Z,29.90
2019-06-26T10:53:01.512Z,29.90
2019-06-26T10:55:29.702Z,29.90
2019-06-26T10:57:57.601Z,29.90
2019-06-26T11:00:25.755Z,30.00
2019-06-26T11:02:53.766Z,30.00
2019-06-26T11:05:21.764Z,30.00
2019-06-26T11:07:49.851Z,30.10
2019-06-26T11:10:31.712Z,30.10
2019-06-26T11:12:59.736Z,30.10
2019-06-26T11:15:47.385Z,30.20
2019-06-26T11:18:15.479Z,30.20
2019-06-26T11:20:43.691Z,30.20
2019-06-26T11:23:11.852Z,30.30
2019-06-26T11:25:39.968Z,30.30
2019-06-26T11:28:08.101Z,30.30
2019-06-26T11:30:36.113Z,30.40
2019-06-26T11:33:04.295Z,30.40
2019-06-26T11:35:32.377Z,30.40
2019-06-26T11:38:00.431Z,30.40
2019-06-26T11:40:28.392Z,30.50
2019-06-26T11:42:56.323Z,30.50
2019-06-26T11:45:24.296Z,30.50
2019-06-26T11:47:52.423Z,30.60
2019-06-26T11:50:20.829Z,30.70
2019-06-26T11:52:48.818Z,30.70
2019-06-26T11:55:16.930Z,30.80
2019-06-26T11:57:45.212Z,30.70
2019-06-26T12:00:14.137Z,30.80
2019-06-26T12:02:42.250Z,30.80
2019-06-26T12:05:11.709Z,30.80
2019-06-26T12:07:40.073Z,30.90
2019-06-26T12:10:10.655Z,30.90
2019-06-26T12:12:38.830Z,30.90
2019-06-26T12:15:55.871Z,30.90
2019-06-26T12:18:21.647Z,30.90
2019-06-26T12:20:49.699Z,31.00
2019-06-26T12:23:17.512Z,31.00
2019-06-26T12:25:45.438Z,31.10
2019-06-26T12:28:13.315Z,31.10
2019-06-26T12:30:41.333Z,31.10
2019-06-26T12:33:09.374Z,31.20
2019-06-26T12:35:37.932Z,31.20
2019-06-26T12:38:05.917Z,31.20
2019-06-26T12:40:33.775Z,31.20
2019-06-26T12:43:01.599Z,31.20
2019-06-26T12:45:29.560Z,31.20
2019-06-26T12:47:57.455Z,31.30
2019-06-26T12:50:35.318Z,31.30
2019-06-26T12:52:55.590Z,31.30
2019-06-26T12:55:23.598Z,31.30
2019-06-26T12:57:51.638Z,31.40
2019-06-26T13:00:20.628Z,31.30
2019-06-26T13:02:48.622Z,31.40
2019-06-26T13:05:16.801Z,31.40
2019-06-26T13:07:44.677Z,31.40
2019-06-26T13:10:13.450Z,31.40
2019-06-26T13:12:41.520Z,31.40
2019-06-26T13:15:57.916Z,31.50
2019-06-26T13:18:23.714Z,31.50
2019-06-26T13:20:53.584Z,31.50
2019-06-26T13:23:21.739Z,31.50
2019-06-26T13:25:49.726Z,31.60
2019-06-26T13:28:17.636Z,31.60
2019-06-26T13:30:45.882Z,31.70
2019-06-26T13:33:13.737Z,31.60
2019-06-26T13:35:41.765Z,31.60
2019-06-26T13:38:09.657Z,31.60
2019-06-26T13:40:40.799Z,31.60
2019-06-26T13:43:07.493Z,31.70
2019-06-26T13:45:35.577Z,31.70
2019-06-26T13:48:03.494Z,31.70
2019-06-26T13:50:31.679Z,31.80
2019-06-26T13:52:59.802Z,31.80
2019-06-26T13:55:27.768Z,31.80
2019-06-26T13:57:55.561Z,31.80
2019-06-26T14:00:23.893Z,31.80
2019-06-26T14:02:51.895Z,31.90
2019-06-26T14:05:20.161Z,31.90
2019-06-26T14:07:48.566Z,31.90
2019-06-26T14:10:17.001Z,31.90
2019-06-26T14:12:44.970Z,31.90
2019-06-26T14:15:51.254Z,31.90
2019-06-26T14:18:17.886Z,31.90
2019-06-26T14:20:45.761Z,32.00
2019-06-26T14:23:13.873Z,32.00
2019-06-26T14:25:41.748Z,32.00
2019-06-26T14:28:09.607Z,32.00
2019-06-26T14:30:37.475Z,32.00
2019-06-26T14:33:05.532Z,32.00
2019-06-26T14:35:33.688Z,32.10
2019-06-26T14:38:02.314Z,32.10
2019-06-26T14:40:30.175Z,32.10
2019-06-26T14:42:58.162Z,32.10
2019-06-26T14:45:26.038Z,32.20
2019-06-26T14:47:53.907Z,32.10
2019-06-26T14:50:22.167Z,32.10
2019-06-26T14:52:49.958Z,32.20
2019-06-26T14:55:18.387Z,32.20
2019-06-26T14:57:46.397Z,32.20
2019-06-26T15:00:16.315Z,32.20
2019-06-26T15:02:44.189Z,32.20
2019-06-26T15:05:12.761Z,32.20
2019-06-26T15:07:40.874Z,32.20
2019-06-26T15:10:09.667Z,32.20
2019-06-26T15:12:37.598Z,32.20
2019-06-26T15:15:42.401Z,32.20
2019-06-26T15:18:11.024Z,32.30
2019-06-26T15:20:39.273Z,32.30
2019-06-26T15:23:07.692Z,32.30
2019-06-26T15:25:35.700Z,32.30
2019-06-26T15:28:03.586Z,32.30
2019-06-26T15:30:31.531Z,32.30
2019-06-26T15:32:59.327Z,32.30
2019-06-26T15:35:27.440Z,32.30
2019-06-26T15:37:55.316Z,32.40
2019-06-26T15:40:23.276Z,32.40
2019-06-26T15:42:51.393Z,32.30
2019-06-26T15:45:20.834Z,32.40
2019-06-26T15:47:48.948Z,32.40
2019-06-26T15:50:18.202Z,32.30
2019-06-26T15:52:46.118Z,32.40
2019-06-26T15:55:14.189Z,32.40
2019-06-26T15:57:42.066Z,32.30
2019-06-26T16:00:10.467Z,32.40
2019-06-26T16:02:38.371Z,32.40
2019-06-26T16:05:06.982Z,32.40
2019-06-26T16:07:34.872Z,32.40
2019-06-26T16:10:02.941Z,32.30
2019-06-26T16:12:30.812Z,32.40
2019-06-26T16:15:31.164Z,32.30
2019-06-26T16:18:18.422Z,32.40
2019-06-26T16:20:46.295Z,32.40
2019-06-26T16:23:14.369Z,32.40
2019-06-26T16:25:42.290Z,32.30
2019-06-26T16:28:10.112Z,32.40
2019-06-26T16:30:38.088Z,32.30
2019-06-26T16:33:06.050Z,32.30
2019-06-26T16:35:34.054Z,32.30
2019-06-26T16:38:02.078Z,32.30
2019-06-26T16:40:30.075Z,32.30
2019-06-26T16:42:58.004Z,32.30
2019-06-26T16:45:26.015Z,32.30
2019-06-26T16:47:54.043Z,32.30
2019-06-26T16:50:22.132Z,32.30
2019-06-26T16:52:50.384Z,32.30
2019-06-26T16:55:18.435Z,32.20
2019-06-26T16:57:46.325Z,32.30
2019-06-26T17:00:14.554Z,32.20
2019-06-26T17:02:42.652Z,32.20
2019-06-26T17:05:11.327Z,32.20
2019-06-26T17:07:39.285Z,32.20
2019-06-26T17:10:07.700Z,32.20
2019-06-26T17:12:35.565Z,32.20
2019-06-26T17:15:27.368Z,32.20
2019-06-26T17:17:55.887Z,32.20
2019-06-26T17:20:23.956Z,32.20
2019-06-26T17:23:05.036Z,32.10
2019-06-26T17:25:21.612Z,32.10
2019-06-26T17:27:49.473Z,32.10
2019-06-26T17:30:17.732Z,32.10
2019-06-26T17:32:45.808Z,32.10
2019-06-26T17:35:14.258Z,32.00
2019-06-26T17:37:42.203Z,32.10
2019-06-26T17:40:10.661Z,32.10
2019-06-26T17:42:38.549Z,32.00
2019-06-26T17:45:07.024Z,32.00
2019-06-26T17:47:35.200Z,32.00
2019-06-26T17:50:03.554Z,32.00
2019-06-26T17:52:34.493Z,32.00
2019-06-26T17:55:01.490Z,32.00
2019-06-26T17:57:29.455Z,31.90
2019-06-26T17:59:57.447Z,31.90
2019-06-26T18:02:25.485Z,31.90
2019-06-26T18:04:53.385Z,31.80
2019-06-26T18:07:21.354Z,31.90
2019-06-26T18:09:49.401Z,31.90
2019-06-26T18:12:17.477Z,31.80
2019-06-26T18:15:13.564Z,31.80
2019-06-26T18:17:40.946Z,31.80
2019-06-26T18:20:09.540Z,31.70
2019-06-26T18:22:37.617Z,31.70
2019-06-26T18:25:06.522Z,31.70
2019-06-26T18:27:34.700Z,31.70
2019-06-26T18:30:03.258Z,31.60
2019-06-26T18:32:31.192Z,31.60
2019-06-26T18:34:59.311Z,31.50
2019-06-26T18:37:27.245Z,31.50
2019-06-26T18:39:55.268Z,31.50
2019-06-26T18:42:23.278Z,31.50
2019-06-26T18:44:51.193Z,31.40
2019-06-26T18:47:19.243Z,31.40
2019-06-26T18:49:47.286Z,31.40
2019-06-26T18:52:15.410Z,31.30
2019-06-26T18:54:43.444Z,31.30
2019-06-26T18:57:11.670Z,31.30
2019-06-26T18:59:42.216Z,31.20
2019-06-26T19:02:09.543Z,31.10
2019-06-26T19:04:37.639Z,31.20
2019-06-26T19:07:05.871Z,31.10
2019-06-26T19:09:33.826Z,31.10
2019-06-26T19:12:01.834Z,31.00
2019-06-26T19:14:56.224Z,31.00
2019-06-26T19:17:30.231Z,31.00
2019-06-26T19:19:58.035Z,31.00
2019-06-26T19:22:26.040Z,31.00
2019-06-26T19:24:54.837Z,31.00
2019-06-26T19:27:22.627Z,30.90
2019-06-26T19:29:50.682Z,30.90
2019-06-26T19:32:18.800Z,30.90
2019-06-26T19:34:46.745Z,30.90
2019-06-26T19:37:14.695Z,30.90
2019-06-26T19:39:42.749Z,30.90
2019-06-26T19:42:10.752Z,30.90
2019-06-26T19:44:38.962Z,30.80
2019-06-26T19:47:07.267Z,30.90
2019-06-26T19:49:35.268Z,30.90
2019-06-26T19:52:03.460Z,30.90
2019-06-26T19:54:32.381Z,30.80
2019-06-26T19:57:00.451Z,30.80
2019-06-26T19:59:28.313Z,30.80
2019-06-26T20:01:56.641Z,30.70
2019-06-26T20:04:24.551Z,30.70
2019-06-26T20:06:52.571Z,30.60
2019-06-26T20:09:20.581Z,30.60
2019-06-26T20:11:48.496Z,30.60
2019-06-26T20:14:52.326Z,30.50
2019-06-26T20:17:44.254Z,30.50
2019-06-26T20:20:12.556Z,30.50
2019-06-26T20:22:40.676Z,30.40
2019-06-26T20:25:27.934Z,30.30
2019-06-26T20:28:27.330Z,30.30
2019-06-26T20:30:54.427Z,30.30
2019-06-26T20:33:22.680Z,30.20
2019-06-26T20:35:54.681Z,30.20
2019-06-26T20:38:27.622Z,30.20
2019-06-26T20:40:55.834Z,30.20
2019-06-26T20:43:28.586Z,30.20
2019-06-26T20:46:01.657Z,30.20
2019-06-26T20:48:34.371Z,30.10
2019-06-26T20:51:07.347Z,30.10
2019-06-26T20:53:39.529Z,30.00
2019-06-26T20:56:11.833Z,30.00
2019-06-26T20:58:39.892Z,29.90
2019-06-26T21:01:12.254Z,29.90
2019-06-26T21:03:44.899Z,29.90
2019-06-26T21:06:18.186Z,29.80
2019-06-26T21:08:50.566Z,29.80
2019-06-26T21:11:19.040Z,29.80
2019-06-26T21:13:47.354Z,29.80
2019-06-26T21:16:29.390Z,29.70
2019-06-26T21:18:57.339Z,29.70
2019-06-26T21:21:25.360Z,29.70
2019-06-26T21:23:58.557Z,29.60
2019-06-26T21:26:31.014Z,29.50
2019-06-26T21:29:03.640Z,29.50
2019-06-26T21:31:36.127Z,29.50
2019-06-26T21:34:09.358Z,29.40
2019-06-26T21:36:42.138Z,29.40
2019-06-26T21:39:10.376Z,29.40
2019-06-26T21:41:38.426Z,29.30
2019-06-26T21:44:06.730Z,29.30
2019-06-26T21:46:34.639Z,29.30
2019-06-26T21:49:03.271Z,29.30
2019-06-26T21:51:31.275Z,29.30
2019-06-26T21:53:59.174Z,29.30
2019-06-26T21:56:27.178Z,29.20
2019-06-26T21:58:55.196Z,29.20
2019-06-26T22:01:23.334Z,29.20
2019-06-26T22:03:51.286Z,29.20
2019-06-26T22:06:19.271Z,29.10
2019-06-26T22:08:50.017Z,29.10
2019-06-26T22:11:17.886Z,29.10
2019-06-26T22:13:45.979Z,29.10
2019-06-26T22:16:13.864Z,29.10
2019-06-26T22:18:42.227Z,29.10
2019-06-26T22:21:10.523Z,29.00
2019-06-26T22:23:38.338Z,29.00
2019-06-26T22:26:06.670Z,28.90
2019-06-26T22:28:34.703Z,28.90
2019-06-26T22:31:02.774Z,28.80
2019-06-26T22:33:30.776Z,28.80
2019-06-26T22:35:58.697Z,28.80
2019-06-26T22:38:27.561Z,28.70
2019-06-26T22:40:55.753Z,28.70
2019-06-26T22:43:24.260Z,28.70
2019-06-26T22:45:52.236Z,28.70
2019-06-26T22:48:20.261Z,28.70
2019-06-26T22:50:48.344Z,28.60
2019-06-26T22:53:16.392Z,28.60
2019-06-26T22:55:44.298Z,28.60
2019-06-26T22:58:12.391Z,28.60
2019-06-26T23:00:40.309Z,28.50
2019-06-26T23:03:08.691Z,28.50
2019-06-26T23:05:36.681Z,28.50
2019-06-26T23:08:04.605Z,28.50
2019-06-26T23:10:32.620Z,28.40
2019-06-26T23:13:00.542Z,28.40
2019-06-26T23:15:28.535Z,28.40
2019-06-26T23:17:56.448Z,28.40
2019-06-26T23:20:24.301Z,28.30
2019-06-26T23:22:52.139Z,28.30
2019-06-26T23:25:20.049Z,28.30
2019-06-26T23:27:47.919Z,28.20
2019-06-26T23:30:19.242Z,28.20
2019-06-26T23:32:47.287Z,28.20
2019-06-26T23:35:15.321Z,28.20
2019-06-26T23:37:43.256Z,28.10
2019-06-26T23:40:11.229Z,28.10
2019-06-26T23:42:39.259Z,28.10
2019-06-26T23:45:08.973Z,28.10
2019-06-26T23:47:37.500Z,28.00
2019-06-26T23:50:06.174Z,28.00
2019-06-26T23:52:34.094Z,28.00
2019-06-26T23:55:02.215Z,28.00
2019-06-26T23:57:30.122Z,27.90
2019-06-26T23:59:57.988Z,28.00
